sensor_id;sensor_type;location;lat;lon;timestamp;P1;durP1;ratioP1;P2;durP2;ratioP2
71916;SDS011;59793;46.506;6.674;2023-04-03T00:01:13;2.15;;;1.30;;
71916;SDS011;59793;46.506;6.674;2023-04-03T00:03:39;1.60;;;1.10;;
71916;SDS011;59793;46.506;6.674;2023-04-03T00:06:06;1.42;;;1.00;;
71916;SDS011;59793;46.506;6.674;2023-04-03T00:08:33;5.05;;;1.08;;
71916;SDS011;59793;46.506;6.674;2023-04-03T00:10:59;2.58;;;1.02;;
71916;SDS011;59793;46.506;6.674;2023-04-03T00:13:25;5.55;;;1.98;;
71916;SDS011;59793;46.506;6.674;2023-04-03T00:15:50;1.83;;;0.90;;
71916;SDS011;59793;46.506;6.674;2023-04-03T00:18:16;1.23;;;0.98;;
71916;SDS011;59793;46.506;6.674;2023-04-03T00:20:41;1.65;;;1.30;;
71916;SDS011;59793;46.506;6.674;2023-04-03T00:23:07;2.97;;;1.67;;
71916;SDS011;59793;46.506;6.674;2023-04-03T00:25:33;2.88;;;1.70;;
71916;SDS011;59793;46.506;6.674;2023-04-03T00:27:59;3.90;;;1.70;;
71916;SDS011;59793;46.506;6.674;2023-04-03T00:30:24;2.35;;;1.42;;
71916;SDS011;59793;46.506;6.674;2023-04-03T00:32:51;2.60;;;1.57;;
71916;SDS011;59793;46.506;6.674;2023-04-03T00:35:17;2.15;;;1.70;;
71916;SDS011;59793;46.506;6.674;2023-04-03T00:37:44;3.30;;;1.50;;
71916;SDS011;59793;46.506;6.674;2023-04-03T00:40:10;4.97;;;1.90;;
71916;SDS011;59793;46.506;6.674;2023-04-03T00:47:29;2.67;;;1.10;;
71916;SDS011;59793;46.506;6.674;2023-04-03T00:49:55;1.83;;;1.05;;
71916;SDS011;59793;46.506;6.674;2023-04-03T00:52:23;0.93;;;0.80;;
71916;SDS011;59793;46.506;6.674;2023-04-03T00:54:53;1.27;;;0.77;;
71916;SDS011;59793;46.506;6.674;2023-04-03T00:57:22;2.28;;;1.23;;
71916;SDS011;59793;46.506;6.674;2023-04-03T00:59:52;1.23;;;0.60;;
71916;SDS011;59793;46.506;6.674;2023-04-03T01:02:22;0.77;;;0.68;;
71916;SDS011;59793;46.506;6.674;2023-04-03T01:04:48;4.17;;;0.70;;
71916;SDS011;59793;46.506;6.674;2023-04-03T01:09:53;2.17;;;1.00;;
71916;SDS011;59793;46.506;6.674;2023-04-03T01:12:23;1.00;;;0.65;;
71916;SDS011;59793;46.506;6.674;2023-04-03T01:22:34;1.27;;;1.10;;
71916;SDS011;59793;46.506;6.674;2023-04-03T01:25:09;2.75;;;1.35;;
71916;SDS011;59793;46.506;6.674;2023-04-03T01:27:35;2.33;;;1.37;;
71916;SDS011;59793;46.506;6.674;2023-04-03T01:30:00;5.97;;;3.58;;
71916;SDS011;59793;46.506;6.674;2023-04-03T01:32:26;5.28;;;2.45;;
71916;SDS011;59793;46.506;6.674;2023-04-03T01:34:51;3.85;;;2.58;;
71916;SDS011;59793;46.506;6.674;2023-04-03T01:37:16;3.20;;;2.30;;
71916;SDS011;59793;46.506;6.674;2023-04-03T01:39:42;3.67;;;2.42;;
71916;SDS011;59793;46.506;6.674;2023-04-03T01:42:07;2.60;;;2.00;;
71916;SDS011;59793;46.506;6.674;2023-04-03T01:44:32;3.25;;;1.80;;
71916;SDS011;59793;46.506;6.674;2023-04-03T01:46:58;4.85;;;3.13;;
71916;SDS011;59793;46.506;6.674;2023-04-03T01:49:23;3.88;;;2.70;;
71916;SDS011;59793;46.506;6.674;2023-04-03T01:51:49;5.57;;;2.65;;
71916;SDS011;59793;46.506;6.674;2023-04-03T01:54:14;3.42;;;2.22;;
71916;SDS011;59793;46.506;6.674;2023-04-03T01:56:39;4.32;;;2.60;;
71916;SDS011;59793;46.506;6.674;2023-04-03T01:59:05;4.30;;;2.20;;
71916;SDS011;59793;46.506;6.674;2023-04-03T02:01:30;3.63;;;2.70;;
71916;SDS011;59793;46.506;6.674;2023-04-03T02:03:56;5.03;;;2.38;;
71916;SDS011;59793;46.506;6.674;2023-04-03T02:06:21;2.95;;;1.70;;
71916;SDS011;59793;46.506;6.674;2023-04-03T02:08:46;3.22;;;1.45;;
71916;SDS011;59793;46.506;6.674;2023-04-03T02:11:12;2.92;;;1.52;;
71916;SDS011;59793;46.506;6.674;2023-04-03T02:13:37;1.75;;;1.23;;
71916;SDS011;59793;46.506;6.674;2023-04-03T02:16:06;0.70;;;0.70;;
71916;SDS011;59793;46.506;6.674;2023-04-03T02:18:33;1.25;;;0.77;;
71916;SDS011;59793;46.506;6.674;2023-04-03T02:20:58;1.17;;;1.08;;
71916;SDS011;59793;46.506;6.674;2023-04-03T02:23:24;1.65;;;0.70;;
71916;SDS011;59793;46.506;6.674;2023-04-03T02:25:49;1.98;;;0.80;;
71916;SDS011;59793;46.506;6.674;2023-04-03T02:28:14;1.70;;;0.75;;
71916;SDS011;59793;46.506;6.674;2023-04-03T02:30:40;0.82;;;0.70;;
71916;SDS011;59793;46.506;6.674;2023-04-03T02:33:05;1.30;;;0.77;;
71916;SDS011;59793;46.506;6.674;2023-04-03T02:35:31;2.47;;;0.73;;
71916;SDS011;59793;46.506;6.674;2023-04-03T02:37:56;2.13;;;0.80;;
71916;SDS011;59793;46.506;6.674;2023-04-03T02:40:21;0.68;;;0.60;;
71916;SDS011;59793;46.506;6.674;2023-04-03T02:42:47;0.70;;;0.70;;
71916;SDS011;59793;46.506;6.674;2023-04-03T02:45:12;1.70;;;0.60;;
71916;SDS011;59793;46.506;6.674;2023-04-03T02:47:37;0.70;;;0.70;;
71916;SDS011;59793;46.506;6.674;2023-04-03T02:50:03;2.40;;;0.60;;
71916;SDS011;59793;46.506;6.674;2023-04-03T02:52:28;0.60;;;0.60;;
71916;SDS011;59793;46.506;6.674;2023-04-03T02:54:54;0.65;;;0.55;;
71916;SDS011;59793;46.506;6.674;2023-04-03T02:57:19;0.45;;;0.45;;
71916;SDS011;59793;46.506;6.674;2023-04-03T02:59:45;0.77;;;0.77;;
71916;SDS011;59793;46.506;6.674;2023-04-03T03:02:10;1.10;;;1.00;;
71916;SDS011;59793;46.506;6.674;2023-04-03T03:04:36;1.00;;;0.70;;
71916;SDS011;59793;46.506;6.674;2023-04-03T03:07:02;2.28;;;0.90;;
71916;SDS011;59793;46.506;6.674;2023-04-03T03:09:28;0.77;;;0.77;;
71916;SDS011;59793;46.506;6.674;2023-04-03T03:11:54;0.93;;;0.80;;
71916;SDS011;59793;46.506;6.674;2023-04-03T03:14:20;0.93;;;0.75;;
71916;SDS011;59793;46.506;6.674;2023-04-03T03:16:45;3.80;;;0.85;;
71916;SDS011;59793;46.506;6.674;2023-04-03T03:19:11;0.85;;;0.70;;
71916;SDS011;59793;46.506;6.674;2023-04-03T03:21:36;1.60;;;1.35;;
71916;SDS011;59793;46.506;6.674;2023-04-03T03:24:02;1.17;;;1.08;;
71916;SDS011;59793;46.506;6.674;2023-04-03T03:26:27;1.60;;;1.38;;
71916;SDS011;59793;46.506;6.674;2023-04-03T03:28:53;2.22;;;1.33;;
71916;SDS011;59793;46.506;6.674;2023-04-03T03:31:18;1.50;;;1.38;;
71916;SDS011;59793;46.506;6.674;2023-04-03T03:33:44;1.08;;;0.98;;
71916;SDS011;59793;46.506;6.674;2023-04-03T03:36:09;1.38;;;1.00;;
71916;SDS011;59793;46.506;6.674;2023-04-03T03:38:35;1.10;;;1.00;;
71916;SDS011;59793;46.506;6.674;2023-04-03T03:41:01;1.17;;;1.00;;
71916;SDS011;59793;46.506;6.674;2023-04-03T03:43:27;1.20;;;1.10;;
71916;SDS011;59793;46.506;6.674;2023-04-03T03:45:52;1.40;;;0.93;;
71916;SDS011;59793;46.506;6.674;2023-04-03T03:48:19;0.90;;;0.90;;
71916;SDS011;59793;46.506;6.674;2023-04-03T03:50:46;2.95;;;0.88;;
71916;SDS011;59793;46.506;6.674;2023-04-03T03:53:12;0.60;;;0.60;;
71916;SDS011;59793;46.506;6.674;2023-04-03T03:55:37;0.65;;;0.65;;
71916;SDS011;59793;46.506;6.674;2023-04-03T03:58:03;0.70;;;0.70;;
71916;SDS011;59793;46.506;6.674;2023-04-03T04:00:28;0.70;;;0.70;;
71916;SDS011;59793;46.506;6.674;2023-04-03T04:02:54;0.93;;;0.90;;
71916;SDS011;59793;46.506;6.674;2023-04-03T04:05:20;0.98;;;0.90;;
71916;SDS011;59793;46.506;6.674;2023-04-03T04:07:46;1.42;;;1.00;;
71916;SDS011;59793;46.506;6.674;2023-04-03T04:10:11;0.90;;;0.90;;
71916;SDS011;59793;46.506;6.674;2023-04-03T04:12:38;0.90;;;0.90;;
71916;SDS011;59793;46.506;6.674;2023-04-03T04:15:04;1.25;;;1.10;;
71916;SDS011;59793;46.506;6.674;2023-04-03T04:17:31;1.73;;;1.08;;
71916;SDS011;59793;46.506;6.674;2023-04-03T04:19:57;1.80;;;1.00;;
71916;SDS011;59793;46.506;6.674;2023-04-03T04:22:22;1.13;;;1.00;;
71916;SDS011;59793;46.506;6.674;2023-04-03T04:24:48;1.88;;;1.00;;
71916;SDS011;59793;46.506;6.674;2023-04-03T04:27:13;1.48;;;1.20;;
71916;SDS011;59793;46.506;6.674;2023-04-03T04:29:40;1.23;;;1.10;;
71916;SDS011;59793;46.506;6.674;2023-04-03T04:32:05;1.42;;;1.00;;
71916;SDS011;59793;46.506;6.674;2023-04-03T04:34:31;0.80;;;0.80;;
71916;SDS011;59793;46.506;6.674;2023-04-03T04:36:56;0.90;;;0.90;;
71916;SDS011;59793;46.506;6.674;2023-04-03T04:39:21;1.27;;;1.17;;
71916;SDS011;59793;46.506;6.674;2023-04-03T04:41:47;3.22;;;1.10;;
71916;SDS011;59793;46.506;6.674;2023-04-03T04:44:12;1.35;;;1.10;;
71916;SDS011;59793;46.506;6.674;2023-04-03T04:46:38;1.20;;;1.10;;
71916;SDS011;59793;46.506;6.674;2023-04-03T04:49:03;1.27;;;1.10;;
71916;SDS011;59793;46.506;6.674;2023-04-03T04:51:29;2.35;;;1.30;;
71916;SDS011;59793;46.506;6.674;2023-04-03T04:53:54;1.38;;;1.20;;
71916;SDS011;59793;46.506;6.674;2023-04-03T04:56:19;1.52;;;1.30;;
71916;SDS011;59793;46.506;6.674;2023-04-03T04:58:45;1.30;;;1.13;;
71916;SDS011;59793;46.506;6.674;2023-04-03T05:01:11;2.60;;;1.50;;
71916;SDS011;59793;46.506;6.674;2023-04-03T05:03:36;2.00;;;1.80;;
71916;SDS011;59793;46.506;6.674;2023-04-03T05:06:02;2.50;;;1.65;;
71916;SDS011;59793;46.506;6.674;2023-04-03T05:08:27;2.42;;;1.80;;
71916;SDS011;59793;46.506;6.674;2023-04-03T05:10:52;3.45;;;2.15;;
71916;SDS011;59793;46.506;6.674;2023-04-03T05:13:18;2.17;;;1.67;;
71916;SDS011;59793;46.506;6.674;2023-04-03T05:15:44;3.40;;;2.15;;
71916;SDS011;59793;46.506;6.674;2023-04-03T05:18:09;3.22;;;2.08;;
71916;SDS011;59793;46.506;6.674;2023-04-03T05:20:35;3.05;;;2.42;;
71916;SDS011;59793;46.506;6.674;2023-04-03T05:23:01;3.28;;;2.40;;
71916;SDS011;59793;46.506;6.674;2023-04-03T05:25:28;3.23;;;2.40;;
71916;SDS011;59793;46.506;6.674;2023-04-03T05:27:53;3.50;;;2.85;;
71916;SDS011;59793;46.506;6.674;2023-04-03T05:30:19;2.80;;;2.22;;
71916;SDS011;59793;46.506;6.674;2023-04-03T05:32:44;3.45;;;2.55;;
71916;SDS011;59793;46.506;6.674;2023-04-03T05:35:10;3.30;;;2.70;;
71916;SDS011;59793;46.506;6.674;2023-04-03T05:37:36;3.25;;;2.72;;
71916;SDS011;59793;46.506;6.674;2023-04-03T05:40:02;2.78;;;2.42;;
71916;SDS011;59793;46.506;6.674;2023-04-03T05:42:28;2.80;;;2.22;;
71916;SDS011;59793;46.506;6.674;2023-04-03T05:44:54;3.58;;;2.55;;
71916;SDS011;59793;46.506;6.674;2023-04-03T05:47:20;3.10;;;2.38;;
71916;SDS011;59793;46.506;6.674;2023-04-03T05:49:45;4.10;;;3.08;;
71916;SDS011;59793;46.506;6.674;2023-04-03T05:52:20;4.43;;;3.38;;
71916;SDS011;59793;46.506;6.674;2023-04-03T05:54:54;3.80;;;3.22;;
71916;SDS011;59793;46.506;6.674;2023-04-03T05:57:20;4.03;;;2.85;;
71916;SDS011;59793;46.506;6.674;2023-04-03T05:59:46;5.38;;;3.42;;
71916;SDS011;59793;46.506;6.674;2023-04-03T06:02:13;4.75;;;4.10;;
71916;SDS011;59793;46.506;6.674;2023-04-03T06:04:40;5.82;;;4.13;;
71916;SDS011;59793;46.506;6.674;2023-04-03T06:07:06;4.15;;;3.30;;
71916;SDS011;59793;46.506;6.674;2023-04-03T06:09:35;5.50;;;3.65;;
71916;SDS011;59793;46.506;6.674;2023-04-03T06:12:01;5.15;;;3.28;;
71916;SDS011;59793;46.506;6.674;2023-04-03T06:14:27;4.47;;;3.53;;
71916;SDS011;59793;46.506;6.674;2023-04-03T06:16:52;6.82;;;3.95;;
71916;SDS011;59793;46.506;6.674;2023-04-03T06:19:19;6.30;;;4.10;;
71916;SDS011;59793;46.506;6.674;2023-04-03T06:21:45;5.37;;;4.20;;
71916;SDS011;59793;46.506;6.674;2023-04-03T06:24:12;5.15;;;4.13;;
71916;SDS011;59793;46.506;6.674;2023-04-03T06:26:40;4.88;;;3.60;;
71916;SDS011;59793;46.506;6.674;2023-04-03T06:29:07;6.70;;;4.40;;
71916;SDS011;59793;46.506;6.674;2023-04-03T06:31:32;4.28;;;3.35;;
71916;SDS011;59793;46.506;6.674;2023-04-03T06:33:58;5.68;;;4.18;;
71916;SDS011;59793;46.506;6.674;2023-04-03T06:36:23;4.70;;;3.78;;
71916;SDS011;59793;46.506;6.674;2023-04-03T06:38:49;4.43;;;3.53;;
71916;SDS011;59793;46.506;6.674;2023-04-03T06:41:15;6.90;;;4.22;;
71916;SDS011;59793;46.506;6.674;2023-04-03T06:43:41;4.63;;;3.88;;
71916;SDS011;59793;46.506;6.674;2023-04-03T06:46:12;6.60;;;4.25;;
71916;SDS011;59793;46.506;6.674;2023-04-03T06:48:41;5.43;;;4.47;;
71916;SDS011;59793;46.506;6.674;2023-04-03T06:51:10;6.28;;;4.30;;
71916;SDS011;59793;46.506;6.674;2023-04-03T06:53:40;5.47;;;4.30;;
71916;SDS011;59793;46.506;6.674;2023-04-03T06:56:06;4.53;;;3.80;;
71916;SDS011;59793;46.506;6.674;2023-04-03T06:58:31;4.90;;;3.95;;
71916;SDS011;59793;46.506;6.674;2023-04-03T07:00:56;4.00;;;3.60;;
71916;SDS011;59793;46.506;6.674;2023-04-03T07:03:22;11.18;;;3.72;;
71916;SDS011;59793;46.506;6.674;2023-04-03T07:05:47;4.70;;;3.85;;
71916;SDS011;59793;46.506;6.674;2023-04-03T07:08:12;7.50;;;4.63;;
71916;SDS011;59793;46.506;6.674;2023-04-03T07:10:38;4.97;;;4.35;;
71916;SDS011;59793;46.506;6.674;2023-04-03T07:13:03;5.35;;;4.22;;
71916;SDS011;59793;46.506;6.674;2023-04-03T07:15:29;5.65;;;4.32;;
71916;SDS011;59793;46.506;6.674;2023-04-03T07:17:55;5.78;;;4.70;;
71916;SDS011;59793;46.506;6.674;2023-04-03T07:20:20;4.75;;;3.88;;
71916;SDS011;59793;46.506;6.674;2023-04-03T07:22:46;4.45;;;3.63;;
71916;SDS011;59793;46.506;6.674;2023-04-03T07:25:11;5.28;;;4.50;;
71916;SDS011;59793;46.506;6.674;2023-04-03T07:27:37;5.68;;;4.30;;
71916;SDS011;59793;46.506;6.674;2023-04-03T07:30:02;5.28;;;4.28;;
71916;SDS011;59793;46.506;6.674;2023-04-03T07:32:28;5.60;;;4.03;;
71916;SDS011;59793;46.506;6.674;2023-04-03T07:34:54;6.13;;;4.20;;
71916;SDS011;59793;46.506;6.674;2023-04-03T07:37:20;5.75;;;4.40;;
71916;SDS011;59793;46.506;6.674;2023-04-03T07:39:45;6.07;;;3.60;;
71916;SDS011;59793;46.506;6.674;2023-04-03T07:42:10;4.88;;;3.80;;
71916;SDS011;59793;46.506;6.674;2023-04-03T07:44:37;6.43;;;4.82;;
71916;SDS011;59793;46.506;6.674;2023-04-03T07:47:02;5.43;;;4.38;;
71916;SDS011;59793;46.506;6.674;2023-04-03T07:49:28;6.35;;;4.28;;
71916;SDS011;59793;46.506;6.674;2023-04-03T07:51:53;4.50;;;3.90;;
71916;SDS011;59793;46.506;6.674;2023-04-03T07:54:19;5.95;;;4.28;;
71916;SDS011;59793;46.506;6.674;2023-04-03T07:56:44;4.90;;;3.72;;
71916;SDS011;59793;46.506;6.674;2023-04-03T07:59:10;5.85;;;4.05;;
71916;SDS011;59793;46.506;6.674;2023-04-03T08:01:36;5.47;;;4.43;;
71916;SDS011;59793;46.506;6.674;2023-04-03T08:04:02;4.88;;;4.30;;
71916;SDS011;59793;46.506;6.674;2023-04-03T08:06:28;5.15;;;3.75;;
71916;SDS011;59793;46.506;6.674;2023-04-03T08:08:55;4.45;;;3.83;;
71916;SDS011;59793;46.506;6.674;2023-04-03T08:11:21;4.88;;;3.80;;
71916;SDS011;59793;46.506;6.674;2023-04-03T08:13:47;4.73;;;4.13;;
71916;SDS011;59793;46.506;6.674;2023-04-03T08:16:14;7.35;;;4.10;;
71916;SDS011;59793;46.506;6.674;2023-04-03T08:18:42;4.03;;;3.58;;
71916;SDS011;59793;46.506;6.674;2023-04-03T08:21:09;4.18;;;3.53;;
71916;SDS011;59793;46.506;6.674;2023-04-03T08:23:36;5.38;;;3.72;;
71916;SDS011;59793;46.506;6.674;2023-04-03T08:26:09;6.18;;;4.10;;
71916;SDS011;59793;46.506;6.674;2023-04-03T08:28:36;4.30;;;3.47;;
71916;SDS011;59793;46.506;6.674;2023-04-03T08:31:03;5.43;;;3.78;;
71916;SDS011;59793;46.506;6.674;2023-04-03T08:33:31;4.93;;;4.20;;
71916;SDS011;59793;46.506;6.674;2023-04-03T08:35:57;4.80;;;4.13;;
71916;SDS011;59793;46.506;6.674;2023-04-03T08:38:22;9.80;;;3.80;;
71916;SDS011;59793;46.506;6.674;2023-04-03T08:40:48;4.85;;;3.83;;
71916;SDS011;59793;46.506;6.674;2023-04-03T08:43:36;5.78;;;4.03;;
71916;SDS011;59793;46.506;6.674;2023-04-03T08:46:17;4.50;;;3.53;;
71916;SDS011;59793;46.506;6.674;2023-04-03T08:48:47;3.97;;;3.47;;
71916;SDS011;59793;46.506;6.674;2023-04-03T08:51:16;4.40;;;3.60;;
71916;SDS011;59793;46.506;6.674;2023-04-03T08:53:59;4.15;;;3.50;;
71916;SDS011;59793;46.506;6.674;2023-04-03T08:56:30;4.10;;;3.50;;
71916;SDS011;59793;46.506;6.674;2023-04-03T08:59:03;7.05;;;3.83;;
71916;SDS011;59793;46.506;6.674;2023-04-03T09:01:35;4.55;;;3.85;;
71916;SDS011;59793;46.506;6.674;2023-04-03T09:04:05;7.28;;;3.33;;
71916;SDS011;59793;46.506;6.674;2023-04-03T09:06:36;5.18;;;3.60;;
71916;SDS011;59793;46.506;6.674;2023-04-03T09:11:56;4.03;;;3.58;;
71916;SDS011;59793;46.506;6.674;2023-04-03T09:17:03;4.80;;;3.83;;
71916;SDS011;59793;46.506;6.674;2023-04-03T09:19:41;4.00;;;3.40;;
71916;SDS011;59793;46.506;6.674;2023-04-03T09:22:28;4.05;;;3.40;;
71916;SDS011;59793;46.506;6.674;2023-04-03T09:25:11;4.18;;;3.78;;
71916;SDS011;59793;46.506;6.674;2023-04-03T09:27:40;4.47;;;3.78;;
71916;SDS011;59793;46.506;6.674;2023-04-03T09:30:11;5.03;;;4.03;;
71916;SDS011;59793;46.506;6.674;2023-04-03T09:32:40;4.13;;;3.42;;
71916;SDS011;59793;46.506;6.674;2023-04-03T09:35:24;5.68;;;3.55;;
71916;SDS011;59793;46.506;6.674;2023-04-03T09:40:37;4.88;;;3.35;;
71916;SDS011;59793;46.506;6.674;2023-04-03T09:45:41;3.97;;;3.33;;
71916;SDS011;59793;46.506;6.674;2023-04-03T09:56:24;3.92;;;3.40;;
71916;SDS011;59793;46.506;6.674;2023-04-03T10:01:27;3.92;;;2.97;;
71916;SDS011;59793;46.506;6.674;2023-04-03T10:06:28;3.53;;;2.38;;
71916;SDS011;59793;46.506;6.674;2023-04-03T10:09:00;2.58;;;2.15;;
71916;SDS011;59793;46.506;6.674;2023-04-03T10:11:31;2.90;;;2.60;;
71916;SDS011;59793;46.506;6.674;2023-04-03T10:14:00;3.83;;;2.88;;
71916;SDS011;59793;46.506;6.674;2023-04-03T10:16:32;2.80;;;2.42;;
71916;SDS011;59793;46.506;6.674;2023-04-03T10:19:19;3.50;;;2.53;;
71916;SDS011;59793;46.506;6.674;2023-04-03T10:21:55;3.30;;;2.33;;
71916;SDS011;59793;46.506;6.674;2023-04-03T10:24:31;2.67;;;2.20;;
71916;SDS011;59793;46.506;6.674;2023-04-03T10:35:44;3.08;;;2.65;;
71916;SDS011;59793;46.506;6.674;2023-04-03T10:37:48;3.63;;;2.33;;
71916;SDS011;59793;46.506;6.674;2023-04-03T10:40:36;3.50;;;2.70;;
71916;SDS011;59793;46.506;6.674;2023-04-03T10:46:18;7.18;;;2.30;;
71916;SDS011;59793;46.506;6.674;2023-04-03T10:55:09;3.35;;;2.42;;
71916;SDS011;59793;46.506;6.674;2023-04-03T10:57:23;3.38;;;2.40;;
71916;SDS011;59793;46.506;6.674;2023-04-03T10:59:55;2.92;;;2.22;;
71916;SDS011;59793;46.506;6.674;2023-04-03T11:05:00;3.08;;;1.90;;
71916;SDS011;59793;46.506;6.674;2023-04-03T11:07:38;4.78;;;2.13;;
71916;SDS011;59793;46.506;6.674;2023-04-03T11:10:15;2.80;;;2.10;;
71916;SDS011;59793;46.506;6.674;2023-04-03T11:12:49;2.13;;;1.52;;
71916;SDS011;59793;46.506;6.674;2023-04-03T11:15:34;3.22;;;2.00;;
71916;SDS011;59793;46.506;6.674;2023-04-03T11:18:34;3.53;;;2.37;;
71916;SDS011;59793;46.506;6.674;2023-04-03T11:21:13;2.60;;;1.98;;
71916;SDS011;59793;46.506;6.674;2023-04-03T11:23:49;1.92;;;1.55;;
71916;SDS011;59793;46.506;6.674;2023-04-03T11:36:45;3.33;;;2.00;;
71916;SDS011;59793;46.506;6.674;2023-04-03T11:39:25;3.05;;;2.17;;
71916;SDS011;59793;46.506;6.674;2023-04-03T11:41:55;6.68;;;1.90;;
71916;SDS011;59793;46.506;6.674;2023-04-03T11:44:40;2.60;;;1.75;;
71916;SDS011;59793;46.506;6.674;2023-04-03T11:47:07;1.60;;;1.30;;
71916;SDS011;59793;46.506;6.674;2023-04-03T12:05:54;2.00;;;1.70;;
71916;SDS011;59793;46.506;6.674;2023-04-03T12:08:27;2.85;;;2.13;;
71916;SDS011;59793;46.506;6.674;2023-04-03T12:24:23;4.43;;;2.20;;
71916;SDS011;59793;46.506;6.674;2023-04-03T12:37:21;2.88;;;2.08;;
71916;SDS011;59793;46.506;6.674;2023-04-03T12:45:42;5.82;;;2.13;;
71916;SDS011;59793;46.506;6.674;2023-04-03T12:48:22;5.00;;;2.15;;
71916;SDS011;59793;46.506;6.674;2023-04-03T12:50:51;4.80;;;2.20;;
71916;SDS011;59793;46.506;6.674;2023-04-03T12:53:18;3.63;;;2.03;;
71916;SDS011;59793;46.506;6.674;2023-04-03T12:55:47;4.25;;;2.17;;
71916;SDS011;59793;46.506;6.674;2023-04-03T12:58:21;2.80;;;2.00;;
71916;SDS011;59793;46.506;6.674;2023-04-03T13:00:59;4.15;;;2.88;;
71916;SDS011;59793;46.506;6.674;2023-04-03T13:03:27;4.18;;;2.33;;
71916;SDS011;59793;46.506;6.674;2023-04-03T13:05:57;2.53;;;1.90;;
71916;SDS011;59793;46.506;6.674;2023-04-03T13:08:25;3.17;;;1.90;;
71916;SDS011;59793;46.506;6.674;2023-04-03T13:13:16;3.60;;;2.50;;
71916;SDS011;59793;46.506;6.674;2023-04-03T13:15:43;3.27;;;1.97;;
71916;SDS011;59793;46.506;6.674;2023-04-03T13:23:28;3.25;;;2.33;;
71916;SDS011;59793;46.506;6.674;2023-04-03T13:25:54;3.03;;;2.28;;
71916;SDS011;59793;46.506;6.674;2023-04-03T13:28:23;2.88;;;2.13;;
71916;SDS011;59793;46.506;6.674;2023-04-03T13:33:43;3.22;;;2.20;;
71916;SDS011;59793;46.506;6.674;2023-04-03T13:36:19;3.58;;;2.33;;
71916;SDS011;59793;46.506;6.674;2023-04-03T13:38:57;4.80;;;2.35;;
71916;SDS011;59793;46.506;6.674;2023-04-03T13:41:32;2.75;;;1.90;;
71916;SDS011;59793;46.506;6.674;2023-04-03T13:44:16;3.47;;;2.50;;
71916;SDS011;59793;46.506;6.674;2023-04-03T13:46:42;2.75;;;2.03;;
71916;SDS011;59793;46.506;6.674;2023-04-03T13:49:20;3.23;;;2.47;;
71916;SDS011;59793;46.506;6.674;2023-04-03T13:51:51;3.17;;;2.28;;
71916;SDS011;59793;46.506;6.674;2023-04-03T13:54:19;3.17;;;2.47;;
71916;SDS011;59793;46.506;6.674;2023-04-03T13:56:51;4.55;;;2.78;;
71916;SDS011;59793;46.506;6.674;2023-04-03T13:59:40;4.15;;;2.80;;
71916;SDS011;59793;46.506;6.674;2023-04-03T14:02:38;3.90;;;2.65;;
71916;SDS011;59793;46.506;6.674;2023-04-03T14:04:58;4.95;;;2.70;;
71916;SDS011;59793;46.506;6.674;2023-04-03T14:07:26;3.70;;;2.80;;
71916;SDS011;59793;46.506;6.674;2023-04-03T14:09:54;6.07;;;2.42;;
71916;SDS011;59793;46.506;6.674;2023-04-03T14:12:27;3.47;;;1.93;;
71916;SDS011;59793;46.506;6.674;2023-04-03T14:14:53;3.60;;;2.45;;
71916;SDS011;59793;46.506;6.674;2023-04-03T14:19:47;3.30;;;2.60;;
71916;SDS011;59793;46.506;6.674;2023-04-03T14:22:19;3.50;;;2.60;;
71916;SDS011;59793;46.506;6.674;2023-04-03T14:24:47;5.32;;;2.60;;
71916;SDS011;59793;46.506;6.674;2023-04-03T14:27:24;6.13;;;2.95;;
71916;SDS011;59793;46.506;6.674;2023-04-03T14:29:56;12.38;;;3.05;;
71916;SDS011;59793;46.506;6.674;2023-04-03T14:32:23;3.80;;;2.75;;
71916;SDS011;59793;46.506;6.674;2023-04-03T14:34:50;3.47;;;2.42;;
71916;SDS011;59793;46.506;6.674;2023-04-03T14:37:17;4.60;;;2.53;;
71916;SDS011;59793;46.506;6.674;2023-04-03T14:39:45;3.20;;;2.15;;
71916;SDS011;59793;46.506;6.674;2023-04-03T14:42:16;3.00;;;2.40;;
71916;SDS011;59793;46.506;6.674;2023-04-03T14:44:43;5.18;;;2.42;;
71916;SDS011;59793;46.506;6.674;2023-04-03T14:47:12;3.53;;;2.33;;
71916;SDS011;59793;46.506;6.674;2023-04-03T14:49:40;5.15;;;2.72;;
71916;SDS011;59793;46.506;6.674;2023-04-03T14:52:09;5.73;;;2.30;;
71916;SDS011;59793;46.506;6.674;2023-04-03T14:54:43;8.70;;;3.15;;
71916;SDS011;59793;46.506;6.674;2023-04-03T14:57:08;4.10;;;2.47;;
71916;SDS011;59793;46.506;6.674;2023-04-03T14:59:37;4.03;;;2.40;;
71916;SDS011;59793;46.506;6.674;2023-04-03T15:02:08;4.90;;;3.00;;
71916;SDS011;59793;46.506;6.674;2023-04-03T15:04:56;3.83;;;2.70;;
71916;SDS011;59793;46.506;6.674;2023-04-03T15:07:22;3.78;;;2.78;;
71916;SDS011;59793;46.506;6.674;2023-04-03T15:09:50;2.85;;;2.17;;
71916;SDS011;59793;46.506;6.674;2023-04-03T15:12:15;3.87;;;2.63;;
71916;SDS011;59793;46.506;6.674;2023-04-03T15:14:41;3.80;;;2.53;;
71916;SDS011;59793;46.506;6.674;2023-04-03T15:17:09;4.47;;;2.27;;
71916;SDS011;59793;46.506;6.674;2023-04-03T15:19:40;4.82;;;2.67;;
71916;SDS011;59793;46.506;6.674;2023-04-03T15:22:05;5.13;;;2.47;;
71916;SDS011;59793;46.506;6.674;2023-04-03T15:24:31;6.10;;;2.55;;
71916;SDS011;59793;46.506;6.674;2023-04-03T15:26:57;3.67;;;2.40;;
71916;SDS011;59793;46.506;6.674;2023-04-03T15:29:23;6.23;;;2.77;;
71916;SDS011;59793;46.506;6.674;2023-04-03T15:31:48;3.83;;;2.23;;
71916;SDS011;59793;46.506;6.674;2023-04-03T15:34:17;2.88;;;2.30;;
71916;SDS011;59793;46.506;6.674;2023-04-03T15:36:42;2.80;;;2.20;;
71916;SDS011;59793;46.506;6.674;2023-04-03T15:39:08;4.13;;;3.17;;
71916;SDS011;59793;46.506;6.674;2023-04-03T15:41:33;3.40;;;2.60;;
71916;SDS011;59793;46.506;6.674;2023-04-03T15:43:58;4.20;;;2.80;;
71916;SDS011;59793;46.506;6.674;2023-04-03T15:46:24;3.77;;;2.67;;
71916;SDS011;59793;46.506;6.674;2023-04-03T15:48:49;4.30;;;2.20;;
71916;SDS011;59793;46.506;6.674;2023-04-03T15:51:15;3.90;;;2.60;;
71916;SDS011;59793;46.506;6.674;2023-04-03T15:53:40;4.90;;;3.20;;
71916;SDS011;59793;46.506;6.674;2023-04-03T15:56:07;3.53;;;2.00;;
71916;SDS011;59793;46.506;6.674;2023-04-03T15:58:34;2.63;;;2.00;;
71916;SDS011;59793;46.506;6.674;2023-04-03T16:01:00;3.83;;;2.10;;
71916;SDS011;59793;46.506;6.674;2023-04-03T16:03:25;5.03;;;2.30;;
71916;SDS011;59793;46.506;6.674;2023-04-03T16:05:51;2.67;;;1.88;;
71916;SDS011;59793;46.506;6.674;2023-04-03T16:08:17;3.40;;;1.93;;
71916;SDS011;59793;46.506;6.674;2023-04-03T16:10:43;4.07;;;2.33;;
71916;SDS011;59793;46.506;6.674;2023-04-03T16:13:10;3.60;;;1.98;;
71916;SDS011;59793;46.506;6.674;2023-04-03T16:15:36;4.47;;;2.10;;
71916;SDS011;59793;46.506;6.674;2023-04-03T16:18:02;5.57;;;2.47;;
71916;SDS011;59793;46.506;6.674;2023-04-03T16:20:29;3.83;;;2.30;;
71916;SDS011;59793;46.506;6.674;2023-04-03T16:22:55;3.37;;;2.60;;
71916;SDS011;59793;46.506;6.674;2023-04-03T16:25:22;3.15;;;2.20;;
71916;SDS011;59793;46.506;6.674;2023-04-03T16:27:47;2.73;;;2.13;;
71916;SDS011;59793;46.506;6.674;2023-04-03T16:30:13;7.20;;;2.20;;
71916;SDS011;59793;46.506;6.674;2023-04-03T16:32:39;4.20;;;2.17;;
71916;SDS011;59793;46.506;6.674;2023-04-03T16:35:05;5.93;;;2.20;;
71916;SDS011;59793;46.506;6.674;2023-04-03T16:37:31;2.85;;;1.80;;
71916;SDS011;59793;46.506;6.674;2023-04-03T16:39:57;5.28;;;2.10;;
71916;SDS011;59793;46.506;6.674;2023-04-03T16:42:23;2.78;;;1.83;;
71916;SDS011;59793;46.506;6.674;2023-04-03T16:44:49;3.67;;;2.08;;
71916;SDS011;59793;46.506;6.674;2023-04-03T16:47:14;4.13;;;2.63;;
71916;SDS011;59793;46.506;6.674;2023-04-03T16:49:43;2.83;;;2.28;;
71916;SDS011;59793;46.506;6.674;2023-04-03T16:52:09;4.82;;;2.00;;
71916;SDS011;59793;46.506;6.674;2023-04-03T16:54:35;3.80;;;1.90;;
71916;SDS011;59793;46.506;6.674;2023-04-03T16:57:00;3.55;;;2.15;;
71916;SDS011;59793;46.506;6.674;2023-04-03T16:59:26;4.38;;;2.20;;
71916;SDS011;59793;46.506;6.674;2023-04-03T17:01:51;4.47;;;2.28;;